sensor_id;sensor_type;location;lat;lon;timestamp;pressure;altitude;pressure_sealevel;temperature;humidity
71735;BME280;59577;52.122;5.406;2023-04-19T00:01:01;102893.75;;;8.52;75.12
71735;BME280;59577;52.122;5.406;2023-04-19T00:03:28;102896.19;;;8.53;75.80
71735;BME280;59577;52.122;5.406;2023-04-19T00:05:56;102896.47;;;8.52;75.58
71735;BME280;59577;52.122;5.406;2023-04-19T00:08:25;102891.06;;;8.52;75.63
71735;BME280;59577;52.122;5.406;2023-04-19T00:10:51;102893.75;;;8.52;75.92
71735;BME280;59577;52.122;5.406;2023-04-19T00:13:18;102899.16;;;8.52;76.22
71735;BME280;59577;52.122;5.406;2023-04-19T00:15:45;102896.47;;;8.52;76.39
71735;BME280;59577;52.122;5.406;2023-04-19T00:18:11;102895.94;;;8.50;76.12
71735;BME280;59577;52.122;5.406;2023-04-19T00:20:38;102893.81;;;8.46;76.38
71735;BME280;59577;52.122;5.406;2023-04-19T00:23:04;102894.38;;;8.43;76.51
71735;BME280;59577;52.122;5.406;2023-04-19T00:25:31;102891.13;;;8.41;76.79
71735;BME280;59577;52.122;5.406;2023-04-19T00:28:00;102897.34;;;8.42;76.56
71735;BME280;59577;52.122;5.406;2023-04-19T00:30:26;102886.03;;;8.40;76.99
71735;BME280;59577;52.122;5.406;2023-04-19T00:32:52;102890.41;;;8.36;76.82
71735;BME280;59577;52.122;5.406;2023-04-19T00:35:19;102885.03;;;8.31;77.11
71735;BME280;59577;52.122;5.406;2023-04-19T00:37:45;102885.91;;;8.26;76.80
71735;BME280;59577;52.122;5.406;2023-04-19T00:40:12;102888.63;;;8.21;77.29
71735;BME280;59577;52.122;5.406;2023-04-19T00:42:46;102886.50;;;8.18;77.34
71735;BME280;59577;52.122;5.406;2023-04-19T00:45:13;102884.13;;;8.11;77.36
71735;BME280;59577;52.122;5.406;2023-04-19T00:47:40;102880.16;;;8.03;77.68
71735;BME280;59577;52.122;5.406;2023-04-19T00:50:26;102870.22;;;7.99;77.97
71735;BME280;59577;52.122;5.406;2023-04-19T00:53:03;102882.91;;;7.98;78.08
71735;BME280;59577;52.122;5.406;2023-04-19T00:55:29;102883.75;;;7.94;78.40
71735;BME280;59577;52.122;5.406;2023-04-19T00:57:58;102881.63;;;7.90;78.26
71735;BME280;59577;52.122;5.406;2023-04-19T01:00:25;102878.41;;;7.88;78.27
71735;BME280;59577;52.122;5.406;2023-04-19T01:02:51;102880.34;;;7.83;78.60
71735;BME280;59577;52.122;5.406;2023-04-19T01:05:19;102873.03;;;7.83;78.79
71735;BME280;59577;52.122;5.406;2023-04-19T01:07:45;102866.84;;;7.83;78.97
71735;BME280;59577;52.122;5.406;2023-04-19T01:10:13;102872.50;;;7.86;79.23
71735;BME280;59577;52.122;5.406;2023-04-19T01:12:39;102869.78;;;7.86;79.00
71735;BME280;59577;52.122;5.406;2023-04-19T01:15:06;102870.81;;;7.90;78.91
71735;BME280;59577;52.122;5.406;2023-04-19T01:17:33;102871.41;;;7.87;79.39
71735;BME280;59577;52.122;5.406;2023-04-19T01:20:01;102873.00;;;7.88;79.31
71735;BME280;59577;52.122;5.406;2023-04-19T01:22:30;102870.59;;;7.87;79.26
71735;BME280;59577;52.122;5.406;2023-04-19T01:24:57;102869.00;;;7.86;79.54
71735;BME280;59577;52.122;5.406;2023-04-19T01:27:24;102866.31;;;7.86;79.49
71735;BME280;59577;52.122;5.406;2023-04-19T01:29:50;102866.03;;;7.87;79.47
71735;BME280;59577;52.122;5.406;2023-04-19T01:32:17;102870.59;;;7.87;79.96
71735;BME280;59577;52.122;5.406;2023-04-19T01:34:43;102866.03;;;7.87;80.34
71735;BME280;59577;52.122;5.406;2023-04-19T01:37:10;102861.16;;;7.89;80.15
71735;BME280;59577;52.122;5.406;2023-04-19T01:39:37;102865.44;;;7.90;80.16
71735;BME280;59577;52.122;5.406;2023-04-19T01:42:03;102864.59;;;7.95;80.33
71735;BME280;59577;52.122;5.406;2023-04-19T01:44:32;102855.72;;;7.95;80.64
71735;BME280;59577;52.122;5.406;2023-04-19T01:46:58;102857.03;;;7.97;80.74
71735;BME280;59577;52.122;5.406;2023-04-19T01:49:25;102865.94;;;7.98;80.74
71735;BME280;59577;52.122;5.406;2023-04-19T01:51:52;102859.16;;;8.00;80.44
71735;BME280;59577;52.122;5.406;2023-04-19T01:54:18;102855.91;;;8.03;80.67
71735;BME280;59577;52.122;5.406;2023-04-19T01:56:45;102859.38;;;8.04;81.01
71735;BME280;59577;52.122;5.406;2023-04-19T01:59:12;102853.44;;;8.07;80.69
71735;BME280;59577;52.122;5.406;2023-04-19T02:01:38;102856.94;;;8.07;80.78
71735;BME280;59577;52.122;5.406;2023-04-19T02:04:05;102862.03;;;8.09;80.50
71735;BME280;59577;52.122;5.406;2023-04-19T02:06:32;102860.13;;;8.09;80.99
71735;BME280;59577;52.122;5.406;2023-04-19T02:08:59;102856.38;;;8.10;80.82
71735;BME280;59577;52.122;5.406;2023-04-19T02:11:25;102856.59;;;8.14;81.16
71735;BME280;59577;52.122;5.406;2023-04-19T02:13:52;102853.34;;;8.17;81.01
71735;BME280;59577;52.122;5.406;2023-04-19T02:16:18;102857.63;;;8.18;80.95
71735;BME280;59577;52.122;5.406;2023-04-19T02:18:55;102854.09;;;8.23;81.25
71735;BME280;59577;52.122;5.406;2023-04-19T02:21:22;102855.41;;;8.25;80.78
71735;BME280;59577;52.122;5.406;2023-04-19T02:23:48;102851.63;;;8.26;81.28
71735;BME280;59577;52.122;5.406;2023-04-19T02:26:14;102855.66;;;8.29;81.13
71735;BME280;59577;52.122;5.406;2023-04-19T02:28:41;102856.16;;;8.31;81.23
71735;BME280;59577;52.122;5.406;2023-04-19T02:31:08;102861.00;;;8.34;81.41
71735;BME280;59577;52.122;5.406;2023-04-19T02:33:34;102866.41;;;8.34;81.02
71735;BME280;59577;52.122;5.406;2023-04-19T02:36:01;102865.50;;;8.39;81.34
71735;BME280;59577;52.122;5.406;2023-04-19T02:38:28;102852.53;;;8.41;80.86
71735;BME280;59577;52.122;5.406;2023-04-19T02:40:54;102863.06;;;8.42;81.22
71735;BME280;59577;52.122;5.406;2023-04-19T02:43:21;102872.78;;;8.43;81.02
71735;BME280;59577;52.122;5.406;2023-04-19T02:45:47;102866.31;;;8.44;80.81
71735;BME280;59577;52.122;5.406;2023-04-19T02:48:14;102868.69;;;8.46;81.11
71735;BME280;59577;52.122;5.406;2023-04-19T02:50:54;102867.34;;;8.49;80.94
71735;BME280;59577;52.122;5.406;2023-04-19T02:53:21;102861.94;;;8.49;80.70
71735;BME280;59577;52.122;5.406;2023-04-19T02:55:48;102857.06;;;8.51;81.08
71735;BME280;59577;52.122;5.406;2023-04-19T02:58:14;102858.69;;;8.52;80.30
71735;BME280;59577;52.122;5.406;2023-04-19T03:00:41;102856.78;;;8.52;80.47
71735;BME280;59577;52.122;5.406;2023-04-19T03:03:08;102861.88;;;8.54;80.46
71735;BME280;59577;52.122;5.406;2023-04-19T03:05:35;102862.69;;;8.54;80.90
71735;BME280;59577;52.122;5.406;2023-04-19T03:08:01;102868.06;;;8.54;80.63
71735;BME280;59577;52.122;5.406;2023-04-19T03:10:28;102859.19;;;8.54;80.95
71735;BME280;59577;52.122;5.406;2023-04-19T03:12:54;102856.72;;;8.57;80.55
71735;BME280;59577;52.122;5.406;2023-04-19T03:15:21;102857.22;;;8.59;81.10
71735;BME280;59577;52.122;5.406;2023-04-19T03:17:48;102855.03;;;8.61;81.05
71735;BME280;59577;52.122;5.406;2023-04-19T03:20:14;102852.88;;;8.63;80.60
71735;BME280;59577;52.122;5.406;2023-04-19T03:22:42;102860.66;;;8.65;80.22
71735;BME280;59577;52.122;5.406;2023-04-19T03:25:08;102854.19;;;8.66;80.85
71735;BME280;59577;52.122;5.406;2023-04-19T03:27:37;102857.66;;;8.66;80.39
71735;BME280;59577;52.122;5.406;2023-04-19T03:30:05;102852.28;;;8.66;80.31
71735;BME280;59577;52.122;5.406;2023-04-19T03:32:31;102852.00;;;8.68;80.04
71735;BME280;59577;52.122;5.406;2023-04-19T03:34:58;102852.81;;;8.69;80.17
71735;BME280;59577;52.122;5.406;2023-04-19T03:37:24;102852.50;;;8.70;80.48
71735;BME280;59577;52.122;5.406;2023-04-19T03:39:51;102845.50;;;8.69;80.71
71735;BME280;59577;52.122;5.406;2023-04-19T03:42:17;102846.31;;;8.70;80.48
71735;BME280;59577;52.122;5.406;2023-04-19T03:44:44;102845.22;;;8.71;80.41
71735;BME280;59577;52.122;5.406;2023-04-19T03:47:10;102850.63;;;8.71;80.39
71735;BME280;59577;52.122;5.406;2023-04-19T03:49:37;102855.19;;;8.70;80.23
71735;BME280;59577;52.122;5.406;2023-04-19T03:52:04;102842.00;;;8.69;79.65
71735;BME280;59577;52.122;5.406;2023-04-19T03:54:30;102847.97;;;8.65;80.59
71735;BME280;59577;52.122;5.406;2023-04-19T03:56:57;102849.91;;;8.60;80.02
71735;BME280;59577;52.122;5.406;2023-04-19T03:59:23;102851.31;;;8.57;80.09
71735;BME280;59577;52.122;5.406;2023-04-19T04:01:50;102844.91;;;8.53;80.29
71735;BME280;59577;52.122;5.406;2023-04-19T04:04:16;102851.44;;;8.47;80.17
71735;BME280;59577;52.122;5.406;2023-04-19T04:06:44;102841.19;;;8.44;80.38
71735;BME280;59577;52.122;5.406;2023-04-19T04:09:10;102839.03;;;8.41;80.17
71735;BME280;59577;52.122;5.406;2023-04-19T04:11:37;102840.44;;;8.38;80.56
71735;BME280;59577;52.122;5.406;2023-04-19T04:14:03;102847.22;;;8.36;80.00
71735;BME280;59577;52.122;5.406;2023-04-19T04:16:30;102848.31;;;8.35;80.37
71735;BME280;59577;52.122;5.406;2023-04-19T04:18:57;102843.47;;;8.32;80.18
71735;BME280;59577;52.122;5.406;2023-04-19T04:21:23;102847.56;;;8.29;79.84
71735;BME280;59577;52.122;5.406;2023-04-19T04:23:50;102853.81;;;8.24;80.38
71735;BME280;59577;52.122;5.406;2023-04-19T04:26:17;102843.56;;;8.21;80.00
71735;BME280;59577;52.122;5.406;2023-04-19T04:28:45;102854.94;;;8.18;80.07
71735;BME280;59577;52.122;5.406;2023-04-19T04:31:12;102849.31;;;8.15;80.19
71735;BME280;59577;52.122;5.406;2023-04-19T04:33:39;102846.09;;;8.13;79.92
71735;BME280;59577;52.122;5.406;2023-04-19T04:36:07;102852.03;;;8.09;79.94
71735;BME280;59577;52.122;5.406;2023-04-19T04:38:35;102852.31;;;8.08;80.04
71735;BME280;59577;52.122;5.406;2023-04-19T04:41:02;102849.13;;;8.06;80.34
71735;BME280;59577;52.122;5.406;2023-04-19T04:43:37;102851.06;;;8.00;80.56
71735;BME280;59577;52.122;5.406;2023-04-19T04:46:05;102845.94;;;7.99;79.82
71735;BME280;59577;52.122;5.406;2023-04-19T04:48:31;102851.63;;;7.97;79.75
71735;BME280;59577;52.122;5.406;2023-04-19T04:50:58;102855.44;;;7.96;79.66
71735;BME280;59577;52.122;5.406;2023-04-19T04:53:25;102846.28;;;7.92;80.41
71735;BME280;59577;52.122;5.406;2023-04-19T04:55:55;102857.66;;;7.89;80.30
71735;BME280;59577;52.122;5.406;2023-04-19T04:58:21;102850.63;;;7.88;80.10
71735;BME280;59577;52.122;5.406;2023-04-19T05:00:48;102859.53;;;7.88;79.87
71735;BME280;59577;52.122;5.406;2023-04-19T05:03:14;102850.13;;;7.86;79.50
71735;BME280;59577;52.122;5.406;2023-04-19T05:05:42;102856.03;;;7.88;80.00
71735;BME280;59577;52.122;5.406;2023-04-19T05:08:10;102849.84;;;7.87;79.53
71735;BME280;59577;52.122;5.406;2023-04-19T05:10:37;102866.53;;;7.89;79.45
71735;BME280;59577;52.122;5.406;2023-04-19T05:13:03;102871.38;;;7.93;79.31
71735;BME280;59577;52.122;5.406;2023-04-19T05:15:30;102858.13;;;7.96;78.90
71735;BME280;59577;52.122;5.406;2023-04-19T05:17:56;102857.84;;;7.98;78.66
71735;BME280;59577;52.122;5.406;2023-04-19T05:20:24;102864.03;;;7.98;78.54
71735;BME280;59577;52.122;5.406;2023-04-19T05:22:56;102863.53;;;7.96;78.32
71735;BME280;59577;52.122;5.406;2023-04-19T05:25:22;102869.44;;;7.98;77.92
71735;BME280;59577;52.122;5.406;2023-04-19T05:27:49;102869.44;;;7.98;77.96
71735;BME280;59577;52.122;5.406;2023-04-19T05:30:16;102868.59;;;8.03;77.35
71735;BME280;59577;52.122;5.406;2023-04-19T05:32:43;102869.56;;;8.12;77.07
71735;BME280;59577;52.122;5.406;2023-04-19T05:35:10;102867.28;;;8.78;76.32
71735;BME280;59577;52.122;5.406;2023-04-19T05:37:38;102870.97;;;9.25;74.80
71735;BME280;59577;52.122;5.406;2023-04-19T05:40:05;102857.63;;;9.67;72.72
71735;BME280;59577;52.122;5.406;2023-04-19T05:42:35;102865.91;;;9.37;71.77
71735;BME280;59577;52.122;5.406;2023-04-19T05:45:01;102865.13;;;9.18;71.96
71735;BME280;59577;52.122;5.406;2023-04-19T05:47:38;102867.19;;;9.26;71.15
71735;BME280;59577;52.122;5.406;2023-04-19T05:50:05;102868.78;;;9.27;70.61
71735;BME280;59577;52.122;5.406;2023-04-19T05:52:32;102871.41;;;9.32;70.51
71735;BME280;59577;52.122;5.406;2023-04-19T05:54:58;102874.00;;;9.56;69.52
71735;BME280;59577;52.122;5.406;2023-04-19T05:57:25;102865.34;;;10.06;68.36
71735;BME280;59577;52.122;5.406;2023-04-19T05:59:51;102863.75;;;10.05;67.28
71735;BME280;59577;52.122;5.406;2023-04-19T06:02:19;102861.22;;;10.42;66.12
71735;BME280;59577;52.122;5.406;2023-04-19T06:04:46;102869.75;;;10.77;64.19
71735;BME280;59577;52.122;5.406;2023-04-19T06:07:12;102866.44;;;10.52;64.83
71735;BME280;59577;52.122;5.406;2023-04-19T06:09:57;102873.94;;;10.69;64.08
71735;BME280;59577;52.122;5.406;2023-04-19T06:12:24;102865.94;;;11.96;61.54
71735;BME280;59577;52.122;5.406;2023-04-19T06:14:51;102864.84;;;12.77;58.19
71735;BME280;59577;52.122;5.406;2023-04-19T06:17:18;102871.06;;;13.82;56.26
71735;BME280;59577;52.122;5.406;2023-04-19T06:19:53;102871.94;;;13.57;54.22
71735;BME280;59577;52.122;5.406;2023-04-19T06:22:20;102880.59;;;13.41;54.45
71735;BME280;59577;52.122;5.406;2023-04-19T06:24:47;102872.72;;;15.66;50.13
71735;BME280;59577;52.122;5.406;2023-04-19T06:27:19;102868.13;;;17.71;45.70
71735;BME280;59577;52.122;5.406;2023-04-19T06:29:46;102858.72;;;18.83;41.84
71735;BME280;59577;52.122;5.406;2023-04-19T06:32:16;102861.19;;;19.08;40.36
71735;BME280;59577;52.122;5.406;2023-04-19T06:34:42;102869.44;;;19.89;38.41
71735;BME280;59577;52.122;5.406;2023-04-19T06:37:09;102869.38;;;19.66;37.15
71735;BME280;59577;52.122;5.406;2023-04-19T06:39:35;102866.41;;;17.50;39.43
71735;BME280;59577;52.122;5.406;2023-04-19T06:42:03;102873.75;;;15.94;41.66
71735;BME280;59577;52.122;5.406;2023-04-19T06:44:30;102873.78;;;16.19;41.03
71735;BME280;59577;52.122;5.406;2023-04-19T06:46:57;102870.59;;;15.38;42.47
71735;BME280;59577;52.122;5.406;2023-04-19T06:49:23;102874.81;;;14.55;42.61
71735;BME280;59577;52.122;5.406;2023-04-19T06:52:02;102865.25;;;14.01;43.99
71735;BME280;59577;52.122;5.406;2023-04-19T06:54:28;102877.47;;;13.95;44.86
71735;BME280;59577;52.122;5.406;2023-04-19T06:56:56;102878.50;;;13.47;44.24
71735;BME280;59577;52.122;5.406;2023-04-19T06:59:23;102872.34;;;12.89;44.63
71735;BME280;59577;52.122;5.406;2023-04-19T07:01:53;102875.28;;;13.27;45.75
71735;BME280;59577;52.122;5.406;2023-04-19T07:04:19;102866.31;;;13.79;44.14
71735;BME280;59577;52.122;5.406;2023-04-19T07:06:48;102871.91;;;13.30;44.77
71735;BME280;59577;52.122;5.406;2023-04-19T07:09:18;102872.19;;;12.85;45.87
71735;BME280;59577;52.122;5.406;2023-04-19T07:11:44;102870.19;;;12.59;45.38
71735;BME280;59577;52.122;5.406;2023-04-19T07:14:16;102876.25;;;12.48;45.18
71735;BME280;59577;52.122;5.406;2023-04-19T07:16:45;102869.72;;;12.17;45.98
71735;BME280;59577;52.122;5.406;2023-04-19T07:19:12;102873.19;;;13.15;45.54
71735;BME280;59577;52.122;5.406;2023-04-19T07:21:39;102875.22;;;15.58;41.53
71735;BME280;59577;52.122;5.406;2023-04-19T07:24:06;102871.28;;;17.57;38.20
71735;BME280;59577;52.122;5.406;2023-04-19T07:26:33;102865.56;;;18.57;35.25
71735;BME280;59577;52.122;5.406;2023-04-19T07:28:59;102860.75;;;18.70;34.72
71735;BME280;59577;52.122;5.406;2023-04-19T07:31:38;102864.50;;;18.97;32.82
71735;BME280;59577;52.122;5.406;2023-04-19T07:34:07;102870.38;;;19.15;33.81
71735;BME280;59577;52.122;5.406;2023-04-19T07:36:34;102867.13;;;19.29;32.35
71735;BME280;59577;52.122;5.406;2023-04-19T07:39:02;102865.44;;;19.44;32.28
71735;BME280;59577;52.122;5.406;2023-04-19T07:41:32;102870.22;;;19.47;31.05
71735;BME280;59577;52.122;5.406;2023-04-19T07:44:01;102863.38;;;18.98;31.75
71735;BME280;59577;52.122;5.406;2023-04-19T07:46:28;102867.53;;;19.51;31.30
71735;BME280;59577;52.122;5.406;2023-04-19T07:48:54;102857.09;;;19.60;31.54
71735;BME280;59577;52.122;5.406;2023-04-19T07:51:21;102869.00;;;19.87;30.50
71735;BME280;59577;52.122;5.406;2023-04-19T07:53:53;102870.16;;;20.09;31.03
71735;BME280;59577;52.122;5.406;2023-04-19T07:56:21;102864.06;;;20.73;29.91
71735;BME280;59577;52.122;5.406;2023-04-19T07:58:47;102870.28;;;20.17;30.29
71735;BME280;59577;52.122;5.406;2023-04-19T08:01:32;102876.34;;;20.53;30.42
71735;BME280;59577;52.122;5.406;2023-04-19T08:03:59;102871.06;;;20.97;28.66
71735;BME280;59577;52.122;5.406;2023-04-19T08:06:26;102879.41;;;19.16;30.37
71735;BME280;59577;52.122;5.406;2023-04-19T08:08:55;102875.66;;;19.67;30.48
71735;BME280;59577;52.122;5.406;2023-04-19T08:11:21;102880.31;;;19.82;30.38
71735;BME280;59577;52.122;5.406;2023-04-19T08:13:53;102873.63;;;19.21;30.47
71735;BME280;59577;52.122;5.406;2023-04-19T08:16:40;102871.53;;;18.95;30.59
71735;BME280;59577;52.122;5.406;2023-04-19T08:19:26;102866.69;;;18.88;29.93
71735;BME280;59577;52.122;5.406;2023-04-19T08:21:53;102867.81;;;18.87;29.82
71735;BME280;59577;52.122;5.406;2023-04-19T08:24:19;102864.81;;;18.92;30.34
71735;BME280;59577;52.122;5.406;2023-04-19T08:26:46;102871.75;;;19.25;30.46
71735;BME280;59577;52.122;5.406;2023-04-19T08:29:19;102874.50;;;19.06;30.93
71735;BME280;59577;52.122;5.406;2023-04-19T08:31:47;102872.09;;;19.04;30.47
71735;BME280;59577;52.122;5.406;2023-04-19T08:34:14;102877.06;;;18.63;29.84
71735;BME280;59577;52.122;5.406;2023-04-19T08:36:40;102872.94;;;18.37;30.46
71735;BME280;59577;52.122;5.406;2023-04-19T08:39:21;102873.50;;;18.78;30.33
71735;BME280;59577;52.122;5.406;2023-04-19T08:42:04;102868.19;;;18.70;31.40
71735;BME280;59577;52.122;5.406;2023-04-19T08:44:45;102866.53;;;19.01;31.22
71735;BME280;59577;52.122;5.406;2023-04-19T08:47:32;102859.25;;;19.08;30.32
71735;BME280;59577;52.122;5.406;2023-04-19T08:50:02;102858.47;;;18.72;31.42
71735;BME280;59577;52.122;5.406;2023-04-19T08:52:34;102854.41;;;18.66;30.83
71735;BME280;59577;52.122;5.406;2023-04-19T08:55:09;102854.81;;;18.84;31.97
71735;BME280;59577;52.122;5.406;2023-04-19T08:57:36;102861.38;;;18.79;30.53
71735;BME280;59577;52.122;5.406;2023-04-19T09:00:04;102856.63;;;18.96;30.24
71735;BME280;59577;52.122;5.406;2023-04-19T09:02:51;102852.56;;;18.54;29.92
71735;BME280;59577;52.122;5.406;2023-04-19T09:05:20;102842.03;;;18.56;30.45
71735;BME280;59577;52.122;5.406;2023-04-19T09:07:48;102859.22;;;18.53;29.33
71735;BME280;59577;52.122;5.406;2023-04-19T09:10:17;102844.56;;;18.30;29.81
71735;BME280;59577;52.122;5.406;2023-04-19T09:13:04;102845.06;;;18.51;29.25
71735;BME280;59577;52.122;5.406;2023-04-19T09:15:38;102848.38;;;18.41;29.89
71735;BME280;59577;52.122;5.406;2023-04-19T09:18:07;102852.38;;;18.12;29.70
71735;BME280;59577;52.122;5.406;2023-04-19T09:20:39;102852.72;;;18.26;29.54
71735;BME280;59577;52.122;5.406;2023-04-19T09:23:08;102848.91;;;18.31;29.42
71735;BME280;59577;52.122;5.406;2023-04-19T09:25:35;102839.84;;;18.46;29.84
71735;BME280;59577;52.122;5.406;2023-04-19T09:28:22;102840.22;;;18.80;29.36
71735;BME280;59577;52.122;5.406;2023-04-19T09:31:10;102839.16;;;18.85;30.07
71735;BME280;59577;52.122;5.406;2023-04-19T09:34:13;102834.34;;;18.46;29.94
71735;BME280;59577;52.122;5.406;2023-04-19T09:36:40;102838.22;;;18.61;29.96
71735;BME280;59577;52.122;5.406;2023-04-19T09:39:07;102838.19;;;18.77;28.99
71735;BME280;59577;52.122;5.406;2023-04-19T09:41:34;102846.63;;;18.17;29.59
71735;BME280;59577;52.122;5.406;2023-04-19T09:44:09;102829.69;;;17.51;31.38
71735;BME280;59577;52.122;5.406;2023-04-19T09:46:56;102831.47;;;17.75;31.14
71735;BME280;59577;52.122;5.406;2023-04-19T09:49:23;102830.06;;;18.13;29.33
71735;BME280;59577;52.122;5.406;2023-04-19T09:52:12;102828.75;;;18.07;30.24
71735;BME280;59577;52.122;5.406;2023-04-19T09:54:40;102825.59;;;18.05;31.36
71735;BME280;59577;52.122;5.406;2023-04-19T09:57:07;102838.47;;;18.04;29.81
71735;BME280;59577;52.122;5.406;2023-04-19T09:59:42;102832.19;;;17.72;30.72
71735;BME280;59577;52.122;5.406;2023-04-19T10:02:10;102839.75;;;17.63;30.40
71735;BME280;59577;52.122;5.406;2023-04-19T10:04:38;102825.78;;;17.68;30.65
71735;BME280;59577;52.122;5.406;2023-04-19T10:07:19;102832.09;;;18.16;30.72
71735;BME280;59577;52.122;5.406;2023-04-19T10:09:49;102856.97;;;18.08;29.78
71735;BME280;59577;52.122;5.406;2023-04-19T10:12:30;102824.34;;;17.87;30.54
71735;BME280;59577;52.122;5.406;2023-04-19T10:15:19;102828.84;;;17.95;30.67
71735;BME280;59577;52.122;5.406;2023-04-19T10:17:47;102816.91;;;17.87;32.61
71735;BME280;59577;52.122;5.406;2023-04-19T10:20:38;102812.84;;;18.13;31.47
71735;BME280;59577;52.122;5.406;2023-04-19T10:23:07;102823.34;;;18.27;30.80
71735;BME280;59577;52.122;5.406;2023-04-19T10:25:37;102814.50;;;17.85;29.23
71735;BME280;59577;52.122;5.406;2023-04-19T10:28:04;102813.25;;;17.51;29.93
71735;BME280;59577;52.122;5.406;2023-04-19T10:30:30;102808.66;;;17.55;31.67
71735;BME280;59577;52.122;5.406;2023-04-19T10:32:58;102801.88;;;17.65;30.51
71735;BME280;59577;52.122;5.406;2023-04-19T10:35:32;102801.81;;;17.49;30.77
71735;BME280;59577;52.122;5.406;2023-04-19T10:38:10;102796.94;;;17.26;31.62
71735;BME280;59577;52.122;5.406;2023-04-19T10:43:18;102807.94;;;17.42;31.32
71735;BME280;59577;52.122;5.406;2023-04-19T10:45:46;102794.00;;;17.63;32.03
71735;BME280;59577;52.122;5.406;2023-04-19T10:51:11;102808.38;;;17.44;29.97
71735;BME280;59577;52.122;5.406;2023-04-19T10:56:58;102800.50;;;17.43;30.95
71735;BME280;59577;52.122;5.406;2023-04-19T10:59:31;102796.84;;;17.67;30.62
71735;BME280;59577;52.122;5.406;2023-04-19T11:02:00;102785.16;;;17.54;30.84
71735;BME280;59577;52.122;5.406;2023-04-19T11:09:28;102783.66;;;18.04;29.11
71735;BME280;59577;52.122;5.406;2023-04-19T11:12:01;102776.06;;;18.14;29.96
71735;BME280;59577;52.122;5.406;2023-04-19T11:14:39;102774.22;;;18.37;31.32
71735;BME280;59577;52.122;5.406;2023-04-19T11:17:18;102762.75;;;18.32;29.57
71735;BME280;59577;52.122;5.406;2023-04-19T11:20:07;102759.66;;;17.98;30.04
71735;BME280;59577;52.122;5.406;2023-04-19T11:22:45;102764.59;;;17.92;29.40
71735;BME280;59577;52.122;5.406;2023-04-19T11:25:16;102754.59;;;17.84;29.12
71735;BME280;59577;52.122;5.406;2023-04-19T11:27:51;102749.47;;;17.82;28.73
71735;BME280;59577;52.122;5.406;2023-04-19T11:30:21;102753.63;;;17.76;29.08
71735;BME280;59577;52.122;5.406;2023-04-19T11:32:51;102740.19;;;17.39;29.67
71735;BME280;59577;52.122;5.406;2023-04-19T11:35:26;102745.09;;;17.18;29.84
71735;BME280;59577;52.122;5.406;2023-04-19T11:37:54;102741.44;;;16.98;29.89
71735;BME280;59577;52.122;5.406;2023-04-19T11:40:23;102729.69;;;16.97;30.74
71735;BME280;59577;52.122;5.406;2023-04-19T11:42:59;102718.22;;;17.52;29.92
71735;BME280;59577;52.122;5.406;2023-04-19T11:45:35;102734.16;;;17.18;29.42
71735;BME280;59577;52.122;5.406;2023-04-19T11:48:06;102723.13;;;16.86;28.60
71735;BME280;59577;52.122;5.406;2023-04-19T11:53:19;102712.28;;;16.61;28.41
71735;BME280;59577;52.122;5.406;2023-04-19T11:55:49;102712.91;;;16.70;28.70
71735;BME280;59577;52.122;5.406;2023-04-19T12:00:56;102710.63;;;16.72;29.20
71735;BME280;59577;52.122;5.406;2023-04-19T12:03:25;102696.34;;;16.51;29.86
71735;BME280;59577;52.122;5.406;2023-04-19T12:05:54;102711.59;;;16.52;28.98
71735;BME280;59577;52.122;5.406;2023-04-19T12:08:33;102695.41;;;16.59;28.99
71735;BME280;59577;52.122;5.406;2023-04-19T12:11:00;102714.56;;;16.47;28.02
71735;BME280;59577;52.122;5.406;2023-04-19T12:13:29;102703.22;;;16.32;28.17
71735;BME280;59577;52.122;5.406;2023-04-19T12:15:57;102711.69;;;16.55;28.40
71735;BME280;59577;52.122;5.406;2023-04-19T12:18:25;102712.28;;;16.61;27.95
71735;BME280;59577;52.122;5.406;2023-04-19T12:20:52;102710.13;;;16.54;27.38
71735;BME280;59577;52.122;5.406;2023-04-19T12:23:20;102708.38;;;16.62;28.25
71735;BME280;59577;52.122;5.406;2023-04-19T12:25:56;102693.88;;;16.74;27.99
71735;BME280;59577;52.122;5.406;2023-04-19T12:28:22;102695.28;;;16.55;28.43
71735;BME280;59577;52.122;5.406;2023-04-19T12:30:49;102691.47;;;16.72;29.62
71735;BME280;59577;52.122;5.406;2023-04-19T12:33:25;102689.91;;;17.00;31.56
71735;BME280;59577;52.122;5.406;2023-04-19T12:35:54;102667.22;;;16.99;28.76
71735;BME280;59577;52.122;5.406;2023-04-19T12:38:20;102682.84;;;16.99;28.42
71735;BME280;59577;52.122;5.406;2023-04-19T12:40:47;102679.84;;;16.76;28.63
71735;BME280;59577;52.122;5.406;2023-04-19T12:43:13;102672.50;;;16.64;28.77
71735;BME280;59577;52.122;5.406;2023-04-19T12:45:40;102679.03;;;16.47;30.32
71735;BME280;59577;52.122;5.406;2023-04-19T12:48:06;102673.06;;;16.29;29.15
71735;BME280;59577;52.122;5.406;2023-04-19T12:50:33;102674.06;;;16.36;30.09
71735;BME280;59577;52.122;5.406;2023-04-19T12:52:59;102669.84;;;16.67;30.20
71735;BME280;59577;52.122;5.406;2023-04-19T12:55:26;102649.94;;;16.67;31.91
71735;BME280;59577;52.122;5.406;2023-04-19T12:57:52;102664.19;;;16.60;28.94
71735;BME280;59577;52.122;5.406;2023-04-19T13:00:19;102658.00;;;16.35;28.72
71735;BME280;59577;52.122;5.406;2023-04-19T13:02:46;102651.41;;;16.64;30.51
71735;BME280;59577;52.122;5.406;2023-04-19T13:05:14;102658.47;;;16.65;29.08
71735;BME280;59577;52.122;5.406;2023-04-19T13:07:40;102661.13;;;16.21;29.33
71735;BME280;59577;52.122;5.406;2023-04-19T13:10:07;102650.31;;;16.12;29.57
71735;BME280;59577;52.122;5.406;2023-04-19T13:12:35;102643.75;;;16.42;28.72
71735;BME280;59577;52.122;5.406;2023-04-19T13:15:01;102637.41;;;16.38;28.34
71735;BME280;59577;52.122;5.406;2023-04-19T13:17:43;102613.94;;;16.36;30.10
71735;BME280;59577;52.122;5.406;2023-04-19T13:20:10;102625.19;;;16.47;28.91
71735;BME280;59577;52.122;5.406;2023-04-19T13:22:36;102622.06;;;16.61;29.36
71735;BME280;59577;52.122;5.406;2023-04-19T13:25:03;102615.44;;;16.90;28.76